Gary Chicago International Airport
KGYY : now visible

Aeroporto :











RITROVATECI SU...

 
LOGIN :

Iscrizione | Disclaimer

   EN    FR    IT 

 









Sommario :    VFR   VFR Marginale   IFR   IFR Intensivo   IFR Molto Intensivo
Visibilità : 
Base nubi : 
>= 8 km
>= 3000ft
5 / 8 km
1000 / 3000 ft
1500m / 5 km
500 / 1000 ft
800 / 1500m
200 / 500 ft
< 800m
< 200 ft
Simboli :   Temporali  Nebbia  Neve Forte  Precipitazioni Forti  Vento > 20 kt







- Altitudine del aeroporto : 591 ft
- Codice IATA : GYY


KGYY - Gary Chicago International

ULTIMO METAR :
  • 201345Z 34015G25KT 15SM SKC 07/00 A2982

METARs OBSOLETI :
  • 201245Z 36014G28KT 10SM SKC 06/00 A2981

TAF KGYY
Valido dal 20 a 12 ore il 21 a 12 ore UTC


201120Z 2012/2112 01012G18KT P6SM SKC WS010/03040KT
FM201300 36019G29KT P6SM FEW250
FM210100 VRB03KT P6SM SKC
FIR KZAU / America del Nord



MetMap, La meteo Aeronautica in un colpo d'occhio ! - Copyright ORBIFLY Dicembre 2007 - Disclaimer

ORBIFLY MET'MAP TEAM :

Programmazione e sviluppo : Alexandra Zaïnal
Concezione e sviluppo : Baudouin d'Aumeries
Co-Programmazione e sviluppo : Marc-Olivier Méhu
Supporto tecnico e logistico : Manuel Goepfert
Aiuto per la traduzione : Arnaldo La Scala

Contatto : metmap@orbifly.com




FONTI E CREDITI :

   NOAA       Earth
Advisory